Time;durP1;ratioP1;P1;durP2;ratioP2;P2;SDS_P1;SDS_P2;PMS_P1;PMS_P2;Temp;Humidity;BMP_temperature;BMP_pressure;BME280_temperature;BME280_humidity;BME280_pressure;Samples;Min_cycle;Max_cycle;Signal;HPM_P1;HPM_P2
2023/01/10 00:00:36;;;;;;;6.85;2.30;;;;;;;4.73;100.00;101176.13;6158285;23;20014;-76
2023/01/10 00:03:06;;;;;;;8.60;2.45;;;;;;;4.70;100.00;101179.53;6132166;23;20393;-76
2023/01/10 00:05:37;;;;;;;14.25;2.70;;;;;;;4.68;100.00;101179.94;6158424;23;20089;-78
2023/01/10 00:08:05;;;;;;;12.43;2.13;;;;;;;4.66;100.00;101187.47;6157741;23;20072;-77
2023/01/10 00:10:33;;;;;;;8.23;2.17;;;;;;;4.67;100.00;101194.25;6131686;23;20476;-77
2023/01/10 00:15:45;;;;;;;12.25;2.22;;;;;;;4.68;100.00;101210.84;6157844;23;20014;-75
2023/01/10 00:18:12;;;;;;;9.50;1.88;;;;;;;4.65;100.00;101222.91;6158337;23;20018;-75
2023/01/10 00:20:39;;;;;;;8.55;2.40;;;;;;;4.67;100.00;101227.78;6157678;23;20025;-77
2023/01/10 00:23:05;;;;;;;6.28;1.55;;;;;;;4.68;100.00;101231.94;6158067;23;20085;-75
2023/01/10 00:25:33;;;;;;;11.35;2.15;;;;;;;4.71;100.00;101239.06;6158294;23;20022;-78
2023/01/10 00:30:59;;;;;;;8.35;2.00;;;;;;;4.77;100.00;101245.44;6138562;23;20064;-76
2023/01/10 00:33:27;;;;;;;12.05;2.38;;;;;;;4.81;100.00;101248.03;6158561;23;20025;-76
2023/01/10 00:35:54;;;;;;;10.82;2.28;;;;;;;4.83;100.00;101251.03;6157309;23;20018;-76
2023/01/10 00:38:20;;;;;;;12.65;1.73;;;;;;;4.82;99.98;101244.25;6158425;23;20396;-75
2023/01/10 00:40:47;;;;;;;7.15;3.10;;;;;;;4.78;100.00;101246.94;6157934;23;20277;-76
2023/01/10 00:46:01;;;;;;;14.40;2.00;;;;;;;4.78;100.00;101248.84;6157835;23;20376;-75
2023/01/10 00:48:28;;;;;;;8.82;1.80;;;;;;;4.80;100.00;101252.56;6159015;23;20025;-75
2023/01/10 00:50:55;;;;;;;8.40;1.65;;;;;;;4.82;100.00;101250.28;6158882;23;20330;-75
2023/01/10 00:53:22;;;;;;;4.43;1.80;;;;;;;4.85;100.00;101257.41;6159743;23;20433;-76
2023/01/10 00:55:48;;;;;;;16.23;2.03;;;;;;;4.86;100.00;101258.94;6159073;23;20027;-76
2023/01/10 00:58:16;;;;;;;8.13;1.65;;;;;;;4.87;100.00;101264.94;6159789;23;20014;-75
2023/01/10 01:00:48;;;;;;;10.73;1.98;;;;;;;4.90;100.00;101259.66;6159309;23;20045;-75
2023/01/10 01:03:17;;;;;;;8.25;1.90;;;;;;;4.92;100.00;101275.84;6133343;23;20017;-76
2023/01/10 01:05:45;;;;;;;8.10;1.85;;;;;;;4.92;100.00;101275.09;6132780;23;20445;-75
2023/01/10 01:08:14;;;;;;;8.57;2.03;;;;;;;4.92;100.00;101267.94;6159194;23;20018;-76
2023/01/10 01:10:41;;;;;;;7.22;2.13;;;;;;;4.92;99.96;101272.47;6159473;23;20421;-76
2023/01/10 01:13:13;;;;;;;11.90;2.22;;;;;;;4.89;99.79;101279.25;6159463;23;20455;-75
2023/01/10 01:15:40;;;;;;;7.78;2.60;;;;;;;4.90;100.00;101277.38;6158876;23;20532;-75
2023/01/10 01:18:07;;;;;;;7.53;1.75;;;;;;;4.88;100.00;101280.41;6159399;23;20080;-76
2023/01/10 01:20:33;;;;;;;10.63;1.92;;;;;;;4.88;100.00;101285.66;6158802;23;20014;-75
2023/01/10 01:23:00;;;;;;;13.50;2.00;;;;;;;4.88;100.00;101293.59;6133109;23;20452;-75
2023/01/10 01:25:26;;;;;;;10.52;2.30;;;;;;;4.89;100.00;101304.88;6159494;23;20018;-75
2023/01/10 01:27:53;;;;;;;10.77;2.22;;;;;;;4.91;100.00;101308.66;6159312;23;20155;-75
2023/01/10 01:30:20;;;;;;;10.48;2.10;;;;;;;4.92;100.00;101307.50;6159386;23;20053;-75
2023/01/10 01:32:46;;;;;;;16.55;2.33;;;;;;;4.93;100.00;101303.75;6158639;23;20037;-75
2023/01/10 01:35:14;;;;;;;4.88;1.77;;;;;;;4.94;100.00;101307.88;6158949;23;20311;-75
2023/01/10 01:37:42;;;;;;;12.10;2.83;;;;;;;4.96;100.00;101310.88;6159303;23;20022;-75
2023/01/10 01:40:17;;;;;;;13.63;2.55;;;;;;;5.00;100.00;101310.84;6132519;23;20018;-75
2023/01/10 01:42:44;;;;;;;10.85;1.65;;;;;;;5.00;100.00;101318.78;6159020;23;20046;-75
2023/01/10 01:45:14;;;;;;;9.27;2.05;;;;;;;5.01;100.00;101321.03;6159157;23;20025;-75
2023/01/10 01:47:49;;;;;;;7.93;2.38;;;;;;;4.99;100.00;101322.56;6132089;23;20105;-75
2023/01/10 01:50:21;;;;;;;5.57;1.50;;;;;;;5.00;100.00;101327.44;6159359;23;20018;-75
2023/01/10 01:52:52;;;;;;;8.35;2.10;;;;;;;5.00;100.00;101329.34;6159049;23;20964;-75
2023/01/10 01:55:19;;;;;;;10.90;2.13;;;;;;;4.98;100.00;101327.06;6159432;23;20022;-75
2023/01/10 01:57:47;;;;;;;10.60;2.25;;;;;;;4.97;100.00;101324.81;6159076;23;20170;-75
2023/01/10 02:00:14;;;;;;;11.10;2.17;;;;;;;4.94;100.00;101328.97;6158583;23;20018;-75
2023/01/10 02:02:49;;;;;;;10.98;1.77;;;;;;;4.92;100.00;101336.53;6158329;23;20025;-76
2023/01/10 02:05:33;;;;;;;6.93;1.83;;;;;;;4.88;100.00;101333.16;6159084;23;20022;-75
2023/01/10 02:08:03;;;;;;;11.20;1.90;;;;;;;4.87;100.00;101333.53;6159325;23;20020;-75
2023/01/10 02:11:08;;;;;;;10.95;2.17;;;;;;;4.88;100.00;101330.53;6158810;23;20038;-75
2023/01/10 02:13:40;;;;;;;11.68;2.00;;;;;;;4.87;100.00;101334.28;6131569;23;20398;-76
2023/01/10 02:16:07;;;;;;;8.93;1.65;;;;;;;4.86;100.00;101338.06;6158721;23;20054;-75
2023/01/10 02:18:36;;;;;;;12.25;2.00;;;;;;;4.87;100.00;101344.09;6158559;23;20018;-76
2023/01/10 02:21:16;;;;;;;9.55;1.83;;;;;;;4.89;100.00;101344.47;6157081;23;20022;-76
2023/01/10 02:24:01;;;;;;;10.18;1.85;;;;;;;4.91;100.00;101342.19;6157408;23;20404;-76
2023/01/10 02:26:57;;;;;;;12.52;2.22;;;;;;;4.93;100.00;101343.31;6159046;23;20022;-76
2023/01/10 02:29:50;;;;;;;7.95;1.92;;;;;;;4.96;100.00;101342.53;6159310;23;20022;-76
2023/01/10 02:32:29;;;;;;;8.77;1.60;;;;;;;4.97;100.00;101354.59;6158397;23;20085;-77
2023/01/10 02:35:30;;;;;;;7.93;2.00;;;;;;;4.99;100.00;101359.50;6158937;23;20022;-77
2023/01/10 02:38:47;;;;;;;9.98;2.15;;;;;;;5.01;100.00;101357.22;6158970;23;20467;-77
2023/01/10 02:41:50;;;;;;;8.85;2.15;;;;;;;5.01;100.00;101357.97;6068618;23;20023;-77
2023/01/10 02:44:28;;;;;;;9.43;1.98;;;;;;;5.03;100.00;101358.34;6068544;23;20019;-77
2023/01/10 02:46:55;;;;;;;6.38;1.85;;;;;;;5.06;100.00;101361.34;6067575;23;20030;-77
2023/01/10 02:49:22;;;;;;;13.57;2.63;;;;;;;5.07;100.00;101360.97;6068064;23;20031;-76
2023/01/10 02:51:48;;;;;;;9.75;1.75;;;;;;;5.08;100.00;101362.47;6068089;23;20099;-77
2023/01/10 02:54:23;;;;;;;15.88;2.03;;;;;;;5.10;100.00;101372.63;6068545;23;20024;-76
2023/01/10 02:57:08;;;;;;;7.60;1.70;;;;;;;5.09;100.00;101371.88;6067824;23;20026;-76
2023/01/10 03:00:03;;;;;;;6.43;1.40;;;;;;;5.12;100.00;101368.47;6068236;23;20062;-77
2023/01/10 03:02:36;;;;;;;12.98;1.92;;;;;;;5.12;100.00;101367.72;6068278;23;20024;-77
2023/01/10 03:05:23;;;;;;;14.05;1.90;;;;;;;5.13;100.00;101367.34;6068449;23;20546;-77
2023/01/10 03:08:11;;;;;;;13.43;1.80;;;;;;;5.16;100.00;101381.66;6067599;23;20091;-77
2023/01/10 03:10:37;;;;;;;9.57;1.88;;;;;;;5.18;100.00;101384.66;6068034;23;20035;-77
2023/01/10 03:13:10;;;;;;;13.15;3.03;;;;;;;5.19;100.00;101380.88;6068217;23;20094;-77
2023/01/10 03:15:38;;;;;;;11.10;2.28;;;;;;;5.16;100.00;101390.31;6133875;23;20045;-77
2023/01/10 03:18:29;;;;;;;17.38;2.53;;;;;;;5.16;100.00;101400.13;6158844;23;20017;-74
2023/01/10 03:20:57;;;;;;;14.82;2.35;;;;;;;5.15;100.00;101399.38;6159227;23;20022;-77
2023/01/10 03:23:25;;;;;;;16.23;2.95;;;;;;;5.14;100.00;101407.69;6159317;23;20017;-76
2023/01/10 03:25:54;;;;;;;11.18;2.20;;;;;;;5.14;100.00;101415.59;6158465;23;20022;-76
2023/01/10 03:28:30;;;;;;;11.73;2.38;;;;;;;5.15;100.00;101419.75;6159177;23;20024;-77
2023/01/10 03:31:05;;;;;;;7.30;2.28;;;;;;;5.16;100.00;101416.72;6157955;23;20022;-77
2023/01/10 03:33:33;;;;;;;11.23;2.30;;;;;;;5.16;100.00;101419.34;6158514;23;20014;-77
2023/01/10 03:36:21;;;;;;;9.00;1.95;;;;;;;5.18;100.00;101409.16;6156679;23;20463;-77
2023/01/10 03:38:54;;;;;;;10.43;1.73;;;;;;;5.19;100.00;101420.47;6158518;23;20014;-77
2023/01/10 03:41:30;;;;;;;8.55;1.60;;;;;;;5.20;100.00;101424.63;6159151;23;20483;-77
2023/01/10 03:46:53;;;;;;;14.55;2.67;;;;;;;5.21;100.00;101431.38;6132022;23;20828;-77
2023/01/10 03:49:23;;;;;;;14.18;2.72;;;;;;;5.20;100.00;101432.53;6158552;23;20046;-77
2023/01/10 03:51:52;;;;;;;11.10;2.00;;;;;;;5.18;100.00;101438.19;6158118;23;20018;-77
2023/01/10 03:54:19;;;;;;;12.85;2.53;;;;;;;5.19;100.00;101439.72;6158703;23;20468;-77
2023/01/10 03:56:50;;;;;;;9.48;2.15;;;;;;;5.19;100.00;101442.34;6158157;23;20018;-77
2023/01/10 03:59:21;;;;;;;13.48;2.63;;;;;;;5.20;100.00;101440.47;6132009;23;20014;-76
2023/01/10 04:01:47;;;;;;;8.52;2.03;;;;;;;5.19;100.00;101446.88;6158372;23;20824;-76
2023/01/10 04:04:14;;;;;;;14.02;1.85;;;;;;;5.18;100.00;101446.13;6158683;23;20046;-77
2023/01/10 04:06:41;;;;;;;16.20;2.42;;;;;;;5.15;100.00;101448.78;6156534;23;20018;-76
2023/01/10 04:09:08;;;;;;;10.23;1.95;;;;;;;5.10;100.00;101449.94;6132143;23;20368;-77
2023/01/10 04:11:34;;;;;;;12.88;2.30;;;;;;;5.07;100.00;101452.56;6158497;23;20025;-76
2023/01/10 04:14:01;;;;;;;15.57;2.00;;;;;;;5.01;100.00;101460.88;6157768;23;20444;-77
2023/01/10 04:16:28;;;;;;;13.77;2.03;;;;;;;4.98;100.00;101461.66;6157833;23;20018;-76
2023/01/10 04:18:54;;;;;;;14.20;2.78;;;;;;;4.97;100.00;101462.03;6158121;23;20381;-77
2023/01/10 04:21:21;;;;;;;14.98;2.75;;;;;;;4.97;100.00;101460.16;6156760;23;20026;-76
2023/01/10 04:23:47;;;;;;;11.73;2.05;;;;;;;4.98;100.00;101471.47;6159316;23;20018;-77
2023/01/10 04:26:14;;;;;;;14.77;2.28;;;;;;;4.99;100.00;101467.69;6159825;23;20021;-77
2023/01/10 04:28:40;;;;;;;16.27;2.97;;;;;;;4.96;100.00;101477.13;6132953;23;20065;-76
2023/01/10 04:31:07;;;;;;;13.85;2.25;;;;;;;4.95;100.00;101482.78;6159267;23;20085;-77
2023/01/10 04:33:33;;;;;;;7.82;2.25;;;;;;;4.91;100.00;101482.78;6159441;23;20085;-77
2023/01/10 04:36:00;;;;;;;14.15;1.98;;;;;;;4.89;100.00;101487.69;6133265;23;20073;-77
2023/01/10 04:38:26;;;;;;;10.20;2.13;;;;;;;4.86;100.00;101485.81;6133675;23;20472;-77
2023/01/10 04:40:55;;;;;;;18.45;2.13;;;;;;;4.82;100.00;101495.63;6132919;23;20022;-77
2023/01/10 04:43:23;;;;;;;14.13;2.65;;;;;;;4.78;100.00;101494.91;6132848;23;20088;-77
2023/01/10 04:45:50;;;;;;;10.02;2.25;;;;;;;4.75;100.00;101503.56;6158997;23;20065;-77
2023/01/10 04:48:16;;;;;;;13.35;2.13;;;;;;;4.72;100.00;101498.31;6159663;23;20512;-77
2023/01/10 04:50:49;;;;;;;16.58;2.10;;;;;;;4.68;100.00;101508.84;6159304;23;20068;-77
2023/01/10 04:53:15;;;;;;;14.20;2.55;;;;;;;4.64;100.00;101511.50;6159909;23;20050;-77
2023/01/10 04:55:42;;;;;;;8.13;2.20;;;;;;;4.60;100.00;101510.75;6159392;23;20069;-77
2023/01/10 04:58:09;;;;;;;6.45;2.03;;;;;;;4.58;100.00;101514.91;6159532;23;20038;-77
2023/01/10 05:00:36;;;;;;;12.98;1.98;;;;;;;4.54;100.00;101514.16;6159511;23;20014;-77
2023/01/10 05:03:03;;;;;;;6.65;1.92;;;;;;;4.51;100.00;101513.00;6159562;23;20018;-77
2023/01/10 05:05:30;;;;;;;6.50;1.95;;;;;;;4.48;100.00;101513.78;6159455;23;20503;-77
2023/01/10 05:07:57;;;;;;;16.83;2.47;;;;;;;4.46;100.00;101518.66;6159406;23;20387;-77
2023/01/10 05:10:24;;;;;;;12.70;2.92;;;;;;;4.44;100.00;101526.19;6158948;23;20460;-77
2023/01/10 05:12:50;;;;;;;10.93;2.42;;;;;;;4.42;100.00;101509.25;6158966;23;20073;-77
2023/01/10 05:15:17;;;;;;;10.80;2.55;;;;;;;4.38;100.00;101516.44;6159786;23;20771;-77
2023/01/10 05:17:43;;;;;;;13.20;2.65;;;;;;;4.34;100.00;101526.97;6157454;23;20021;-77
2023/01/10 05:20:12;;;;;;;11.32;2.03;;;;;;;4.30;100.00;101526.22;6159304;23;20022;-77
2023/01/10 05:22:38;;;;;;;11.77;2.72;;;;;;;4.26;100.00;101534.13;6159308;23;20018;-77
2023/01/10 05:25:05;;;;;;;14.27;2.35;;;;;;;4.24;100.00;101536.38;6158747;23;20018;-77
2023/01/10 05:27:32;;;;;;;14.43;2.38;;;;;;;4.23;100.00;101549.94;6159369;23;20024;-77
2023/01/10 05:29:58;;;;;;;6.40;2.15;;;;;;;4.21;100.00;101555.59;6158991;23;20022;-77
2023/01/10 05:32:28;;;;;;;14.95;2.40;;;;;;;4.20;100.00;101566.50;6159394;23;20022;-76
2023/01/10 05:34:55;;;;;;;12.95;2.28;;;;;;;4.21;100.00;101565.38;6158550;23;20022;-77
2023/01/10 05:37:22;;;;;;;12.40;2.67;;;;;;;4.23;100.00;101558.59;6133573;23;20021;-76
2023/01/10 05:39:48;;;;;;;16.95;2.45;;;;;;;4.28;100.00;101545.06;6156713;23;20081;-77
2023/01/10 05:42:15;;;;;;;11.52;3.03;;;;;;;4.31;100.00;101557.47;6157895;23;20395;-77
2023/01/10 05:44:44;;;;;;;15.32;2.90;;;;;;;4.37;100.00;101565.78;6157813;23;20026;-77
2023/01/10 05:47:10;;;;;;;13.60;3.28;;;;;;;4.41;100.00;101569.13;6159229;23;20472;-77
2023/01/10 05:49:37;;;;;;;12.95;3.13;;;;;;;4.44;100.00;101581.56;6159074;23;20456;-77
2023/01/10 05:52:03;;;;;;;14.18;3.00;;;;;;;4.46;100.00;101574.03;6159204;23;20077;-77
2023/01/10 05:54:30;;;;;;;24.55;3.53;;;;;;;4.51;100.00;101592.13;6132155;23;20018;-77
2023/01/10 05:56:56;;;;;;;20.48;3.13;;;;;;;4.54;100.00;101593.25;6159149;23;20025;-77
2023/01/10 05:59:23;;;;;;;13.32;3.05;;;;;;;4.57;100.00;101584.59;6159461;23;20544;-75
2023/01/10 06:01:54;;;;;;;19.38;3.65;;;;;;;4.60;100.00;101581.94;6159086;23;20014;-77
2023/01/10 06:04:20;;;;;;;21.08;3.70;;;;;;;4.65;100.00;101586.09;6159522;23;20534;-78
2023/01/10 06:06:47;;;;;;;14.05;2.45;;;;;;;4.66;100.00;101587.59;6158802;23;20337;-77
2023/01/10 06:09:13;;;;;;;15.10;2.83;;;;;;;4.68;100.00;101586.09;6132499;23;20751;-76
2023/01/10 06:11:40;;;;;;;15.65;2.92;;;;;;;4.71;100.00;101595.13;6132740;23;20093;-76
2023/01/10 06:14:07;;;;;;;17.60;2.85;;;;;;;4.74;100.00;101604.19;6159128;23;20496;-75
2023/01/10 06:16:33;;;;;;;16.45;2.88;;;;;;;4.76;100.00;101586.84;6158793;23;20024;-76
2023/01/10 06:19:00;;;;;;;17.90;2.33;;;;;;;4.80;100.00;101594.75;6157747;23;20431;-75
2023/01/10 06:21:26;;;;;;;14.35;2.80;;;;;;;4.83;100.00;101597.38;6159221;23;20097;-76
2023/01/10 06:23:53;;;;;;;12.70;3.15;;;;;;;4.83;100.00;101600.00;6158510;23;20018;-76
2023/01/10 06:26:20;;;;;;;13.63;3.03;;;;;;;4.85;100.00;101607.56;6159409;23;20014;-76
2023/01/10 06:28:46;;;;;;;15.57;3.22;;;;;;;4.87;100.00;101613.97;6159026;23;20052;-76
2023/01/10 06:31:13;;;;;;;16.55;2.58;;;;;;;4.90;100.00;101609.81;6158994;23;20021;-75
2023/01/10 06:33:42;;;;;;;19.05;2.65;;;;;;;4.91;100.00;101606.78;6157291;23;20018;-76
2023/01/10 06:36:09;;;;;;;14.63;2.90;;;;;;;4.94;100.00;101616.59;6108093;23;20353;-76
2023/01/10 06:38:36;;;;;;;13.38;2.88;;;;;;;4.96;100.00;101624.13;6158548;23;20022;-76
2023/01/10 06:41:11;;;;;;;12.65;2.80;;;;;;;4.96;100.00;101627.53;6158842;23;20568;-76
2023/01/10 06:43:40;;;;;;;15.07;3.47;;;;;;;4.97;100.00;101626.38;6159140;23;20097;-75
2023/01/10 06:46:08;;;;;;;16.95;3.63;;;;;;;4.99;100.00;101633.94;6158689;23;20093;-76
2023/01/10 06:48:36;;;;;;;11.43;2.65;;;;;;;5.01;100.00;101634.31;6158916;23;20018;-75
2023/01/10 06:51:06;;;;;;;17.50;3.45;;;;;;;5.03;100.00;101637.31;6158789;23;20025;-75
2023/01/10 06:53:32;;;;;;;12.82;3.00;;;;;;;5.05;100.00;101642.22;6158358;23;20010;-75
2023/01/10 06:56:00;;;;;;;21.40;3.67;;;;;;;5.06;100.00;101638.44;6158683;23;20604;-76
2023/01/10 06:58:27;;;;;;;15.27;3.25;;;;;;;5.07;100.00;101646.00;6159501;23;20443;-76
2023/01/10 07:00:54;;;;;;;12.02;2.88;;;;;;;5.08;100.00;101644.09;6158811;23;20044;-76
2023/01/10 07:03:20;;;;;;;15.40;3.15;;;;;;;5.09;100.00;101646.38;6158011;23;20018;-76
2023/01/10 07:05:47;;;;;;;27.67;3.30;;;;;;;5.10;100.00;101658.44;6158967;23;20014;-75
2023/01/10 07:08:13;;;;;;;19.80;2.97;;;;;;;5.10;100.00;101655.03;6158706;23;20029;-75
2023/01/10 07:10:41;;;;;;;15.13;3.78;;;;;;;5.11;100.00;101659.19;6158522;23;20097;-75
2023/01/10 07:13:07;;;;;;;13.82;3.42;;;;;;;5.11;100.00;101651.28;6132487;23;20077;-75
2023/01/10 07:15:34;;;;;;;15.05;3.35;;;;;;;5.11;100.00;101651.28;6132242;23;20487;-75
2023/01/10 07:18:01;;;;;;;19.33;3.50;;;;;;;5.10;100.00;101650.50;6151792;23;20090;-75
2023/01/10 07:20:28;;;;;;;14.02;3.40;;;;;;;5.11;100.00;101664.47;6127407;23;20543;-75
2023/01/10 07:22:59;;;;;;;22.30;4.55;;;;;;;5.09;100.00;101667.47;6128647;23;20014;-75
2023/01/10 07:25:27;;;;;;;26.55;3.60;;;;;;;5.08;100.00;101676.53;6129750;23;20018;-75
2023/01/10 07:27:57;;;;;;;17.27;3.42;;;;;;;5.08;100.00;101678.41;6129216;23;20006;-75
2023/01/10 07:30:24;;;;;;;25.08;4.22;;;;;;;5.09;100.00;101696.50;6151908;23;20077;-75
2023/01/10 07:32:53;;;;;;;12.43;2.63;;;;;;;5.08;100.00;101697.66;6128724;23;20464;-75
2023/01/10 07:35:20;;;;;;;21.75;3.33;;;;;;;5.10;100.00;101713.84;6128761;23;20014;-75
2023/01/10 07:37:47;;;;;;;18.42;3.45;;;;;;;5.11;100.00;101715.38;6128869;23;20053;-75
2023/01/10 07:40:14;;;;;;;19.73;3.65;;;;;;;5.12;100.00;101718.75;6129257;23;20072;-75
2023/01/10 07:42:40;;;;;;;19.27;3.50;;;;;;;5.12;100.00;101713.47;6127469;23;20504;-76
2023/01/10 07:45:07;;;;;;;14.85;3.05;;;;;;;5.11;100.00;101725.94;6128913;23;20024;-75
2023/01/10 07:47:34;;;;;;;13.80;3.92;;;;;;;5.10;100.00;101718.38;6129619;23;20081;-76
2023/01/10 07:50:00;;;;;;;24.08;3.75;;;;;;;5.10;100.00;101726.31;6128579;23;20444;-78
2023/01/10 07:52:27;;;;;;;16.77;4.00;;;;;;;5.07;100.00;101716.50;6128727;23;20205;-76
2023/01/10 07:54:53;;;;;;;17.58;3.00;;;;;;;5.06;100.00;101721.03;6125288;23;20941;-75
2023/01/10 07:57:20;;;;;;;18.33;3.30;;;;;;;5.06;100.00;101718.38;6125640;23;20026;-76
2023/01/10 07:59:46;;;;;;;13.57;3.95;;;;;;;5.05;100.00;101724.78;6151331;23;20025;-78
2023/01/10 08:02:13;;;;;;;25.17;3.28;;;;;;;5.03;100.00;101732.31;6128968;23;20098;-76
2023/01/10 08:04:40;;;;;;;18.83;4.18;;;;;;;5.05;100.00;101727.44;6129994;23;20448;-76
2023/01/10 08:07:06;;;;;;;12.75;3.85;;;;;;;5.03;100.00;101722.53;6130417;23;20365;-78
2023/01/10 08:09:32;;;;;;;16.45;4.38;;;;;;;5.02;100.00;101736.84;6130761;23;20022;-76
2023/01/10 08:11:59;;;;;;;18.75;4.28;;;;;;;5.02;100.00;101736.09;6130318;23;20475;-75
2023/01/10 08:14:25;;;;;;;19.30;4.88;;;;;;;5.01;100.00;101737.97;6130587;23;20022;-80
2023/01/10 08:16:52;;;;;;;12.77;3.80;;;;;;;5.00;100.00;101749.66;6144649;23;20018;-77
2023/01/10 08:19:18;;;;;;;15.88;4.03;;;;;;;4.99;100.00;101744.75;6132146;23;20443;-77
2023/01/10 08:21:45;;;;;;;27.58;4.85;;;;;;;5.00;100.00;101744.38;6159173;23;20014;-77
2023/01/10 08:24:12;;;;;;;24.88;6.25;;;;;;;5.00;100.00;101743.63;6132538;23;20081;-78
2023/01/10 08:26:39;;;;;;;16.45;3.67;;;;;;;4.99;100.00;101742.13;6158915;23;20053;-79
2023/01/10 08:29:05;;;;;;;18.83;4.40;;;;;;;4.98;100.00;101749.28;6158679;23;20024;-77
2023/01/10 08:31:32;;;;;;;19.25;4.68;;;;;;;4.98;100.00;101744.00;6132747;23;20440;-77
2023/01/10 08:33:59;;;;;;;18.25;4.78;;;;;;;5.00;100.00;101743.63;6157857;23;20510;-78
2023/01/10 08:36:27;;;;;;;17.90;5.32;;;;;;;5.03;100.00;101745.53;6132329;23;20019;-77
2023/01/10 08:38:54;;;;;;;17.10;4.43;;;;;;;5.06;100.00;101747.41;6158306;23;20073;-77
2023/01/10 08:41:21;;;;;;;12.55;4.13;;;;;;;5.07;100.00;101750.81;6158914;23;20018;-77
2023/01/10 08:43:49;;;;;;;21.23;4.43;;;;;;;5.10;100.00;101734.22;6132464;23;20033;-77
2023/01/10 08:46:16;;;;;;;24.08;4.90;;;;;;;5.10;100.00;101742.13;6132835;23;20022;-78
2023/01/10 08:48:43;;;;;;;17.55;4.90;;;;;;;5.06;100.00;101726.28;6107585;23;20041;-77
2023/01/10 08:51:10;;;;;;;22.65;4.53;;;;;;;5.08;100.00;101731.19;6158398;23;20022;-77
2023/01/10 08:53:40;;;;;;;26.75;4.15;;;;;;;5.11;100.00;101727.81;6158564;23;20444;-77
2023/01/10 08:56:07;;;;;;;12.68;4.20;;;;;;;5.14;100.00;101730.44;6131750;23;20029;-78
2023/01/10 08:58:34;;;;;;;25.67;4.78;;;;;;;5.15;100.00;101726.69;6132337;23;20026;-78
2023/01/10 09:01:05;;;;;;;21.83;4.55;;;;;;;5.15;100.00;101728.56;6158345;23;20018;-77
2023/01/10 09:03:32;;;;;;;17.95;4.45;;;;;;;5.16;100.00;101732.72;6131996;23;20097;-76
2023/01/10 09:06:00;;;;;;;17.02;4.30;;;;;;;5.17;100.00;101719.13;6158261;23;20026;-77
2023/01/10 09:08:27;;;;;;;22.00;4.63;;;;;;;5.20;100.00;101725.56;6158439;23;20041;-76
2023/01/10 09:10:53;;;;;;;19.30;4.28;;;;;;;5.20;100.00;101720.28;6157952;23;20445;-76
2023/01/10 09:13:20;;;;;;;16.45;3.78;;;;;;;5.22;100.00;101731.94;6158666;23;20436;-77
2023/01/10 09:15:46;;;;;;;17.77;3.83;;;;;;;5.23;100.00;101725.53;6112866;23;1063227;-77
2023/01/10 09:18:13;;;;;;;24.27;4.43;;;;;;;5.25;100.00;101727.78;6132682;23;20056;-77
2023/01/10 09:20:41;;;;;;;17.45;4.13;;;;;;;5.25;100.00;101731.19;6157935;23;20077;-80
2023/01/10 09:23:17;;;;;;;15.38;4.38;;;;;;;5.26;100.00;101732.69;6159615;23;20014;-75
2023/01/10 09:25:50;;;;;;;11.88;3.90;;;;;;;5.26;100.00;101726.66;6134077;23;20080;-76
2023/01/10 09:28:17;;;;;;;20.63;4.20;;;;;;;5.27;100.00;101723.63;6160334;23;20022;-79
2023/01/10 09:30:44;;;;;;;18.20;3.97;;;;;;;5.27;100.00;101721.00;6134187;23;20029;-79
2023/01/10 09:33:11;;;;;;;15.00;3.78;;;;;;;5.27;99.86;101723.63;6159211;23;20033;-79
2023/01/10 09:35:39;;;;;;;14.27;3.42;;;;;;;5.27;99.70;101726.28;6160025;23;20025;-76
2023/01/10 09:38:09;;;;;;;20.98;4.15;;;;;;;5.28;99.67;101719.09;6133768;23;20129;-77
2023/01/10 09:41:20;;;;;;;19.73;3.75;;;;;;;5.29;99.95;101720.63;6158034;23;20014;-75
2023/01/10 09:44:05;;;;;;;23.30;3.35;;;;;;;5.32;99.73;101719.88;6160265;23;20029;-79
2023/01/10 09:47:00;;;;;;;10.32;3.05;;;;;;;5.34;99.75;101720.25;6133549;23;20073;-79
2023/01/10 09:49:51;;;;;;;22.13;5.03;;;;;;;5.32;99.53;101717.97;6160154;23;20022;-78
2023/01/10 09:52:24;;;;;;;17.33;3.88;;;;;;;5.35;99.37;101725.16;6159784;23;20050;-75
2023/01/10 09:54:54;;;;;;;22.92;4.50;;;;;;;5.35;98.93;101727.78;6159444;23;20137;-76
2023/01/10 09:57:22;;;;;;;26.75;4.95;;;;;;;5.34;98.78;101715.72;6160052;23;20025;-76
2023/01/10 09:59:52;;;;;;;25.10;4.90;;;;;;;5.37;98.84;101730.03;6159553;23;20018;-77
2023/01/10 10:02:30;;;;;;;19.00;4.50;;;;;;;5.37;98.42;101732.69;6133366;23;20352;-75
2023/01/10 10:05:21;;;;;;;14.50;3.75;;;;;;;5.37;98.67;101735.31;6133662;23;20025;-76
2023/01/10 10:07:53;;;;;;;15.88;3.72;;;;;;;5.35;98.40;101727.03;6159957;23;20022;-76
2023/01/10 10:10:30;;;;;;;18.52;5.20;;;;;;;5.38;98.30;101733.44;6159763;23;20444;-75
2023/01/10 10:13:11;;;;;;;18.35;4.25;;;;;;;5.41;97.70;101725.50;6159487;23;20022;-75
2023/01/10 10:16:09;;;;;;;13.13;4.13;;;;;;;5.41;97.73;101722.88;6158224;23;20017;-76
2023/01/10 10:18:57;;;;;;;11.88;3.88;;;;;;;5.43;97.46;101717.22;6159677;23;20018;-76
2023/01/10 10:21:57;;;;;;;19.25;3.50;;;;;;;5.43;97.42;101711.94;6159315;23;20018;-74
2023/01/10 10:24:48;;;;;;;18.10;3.58;;;;;;;5.46;97.12;101711.94;6159765;23;20065;-77
2023/01/10 10:27:22;;;;;;;19.60;4.93;;;;;;;5.48;96.94;101719.47;6159929;23;20041;-78
2023/01/10 10:30:00;;;;;;;22.10;3.90;;;;;;;5.49;97.11;101713.06;6158859;23;20021;-75
2023/01/10 10:32:34;;;;;;;14.77;3.55;;;;;;;5.50;96.56;101711.94;6159712;23;20024;-76
2023/01/10 10:35:12;;;;;;;13.98;3.38;;;;;;;5.51;96.44;101702.88;6159395;23;20062;-77
2023/01/10 10:37:44;;;;;;;12.57;3.15;;;;;;;5.49;96.16;101699.84;6133492;23;20937;-79
2023/01/10 10:40:14;;;;;;;13.35;3.35;;;;;;;5.48;96.39;101696.47;6132980;23;20101;-78
2023/01/10 10:42:47;;;;;;;23.33;4.10;;;;;;;5.50;95.90;101699.47;6133348;23;20081;-76
2023/01/10 10:45:40;;;;;;;21.05;3.17;;;;;;;5.48;96.47;101693.81;6133786;23;20077;-80
2023/01/10 10:48:30;;;;;;;13.38;2.83;;;;;;;5.51;95.92;101685.13;6159380;23;20499;-78
2023/01/10 10:51:26;;;;;;;17.35;3.67;;;;;;;5.48;96.15;101685.91;6158771;23;20025;-78
2023/01/10 10:53:56;;;;;;;12.52;2.72;;;;;;;5.46;96.26;101682.88;6159599;23;20025;-78
2023/01/10 10:56:25;;;;;;;15.57;3.17;;;;;;;5.45;95.67;101672.69;6133510;23;20443;-79
2023/01/10 10:58:55;;;;;;;20.80;3.75;;;;;;;5.46;95.90;101674.97;6132796;23;20018;-80
2023/01/10 11:01:22;;;;;;;16.80;3.20;;;;;;;5.45;96.11;101662.13;6159429;23;20022;-76
2023/01/10 11:03:59;;;;;;;19.15;3.50;;;;;;;5.46;96.20;101663.63;6159341;23;20153;-78
2023/01/10 11:06:29;;;;;;;18.10;3.72;;;;;;;5.49;95.56;101662.88;6159837;23;20025;-78
2023/01/10 11:09:02;;;;;;;13.90;3.33;;;;;;;5.48;95.88;101653.44;6159172;23;20014;-78
2023/01/10 11:11:36;;;;;;;21.33;3.47;;;;;;;5.48;95.48;101659.50;6159598;23;20033;-78
2023/01/10 11:14:05;;;;;;;9.25;2.78;;;;;;;5.50;95.22;101649.28;6132430;23;20021;-79
2023/01/10 11:16:42;;;;;;;15.55;2.63;;;;;;;5.51;95.35;101647.41;6116805;23;20042;-78
2023/01/10 11:19:13;;;;;;;16.95;2.95;;;;;;;5.51;94.88;101650.06;6098827;23;20019;-78
2023/01/10 11:21:44;;;;;;;12.88;2.50;;;;;;;5.50;95.30;101649.28;6099042;23;20027;-78
2023/01/10 11:24:33;;;;;;;17.30;3.17;;;;;;;5.51;95.70;101650.06;6100307;23;20042;-78
2023/01/10 11:27:03;;;;;;;13.15;3.03;;;;;;;5.50;95.11;101644.00;6075353;23;20148;-76
2023/01/10 11:29:46;;;;;;;13.00;3.45;;;;;;;5.54;95.08;101639.47;6100116;23;20425;-78
2023/01/10 11:32:16;;;;;;;19.35;3.05;;;;;;;5.54;95.24;101639.47;6098495;23;20029;-77
2023/01/10 11:34:58;;;;;;;16.80;3.03;;;;;;;5.59;95.30;101640.97;6100676;23;20089;-78
2023/01/10 11:37:31;;;;;;;11.57;2.55;;;;;;;5.60;95.09;101642.44;6100628;23;20019;-78
2023/01/10 11:40:24;;;;;;;16.05;3.35;;;;;;;5.58;95.29;101629.66;6074535;23;20169;-78
2023/01/10 11:42:56;;;;;;;12.80;2.75;;;;;;;5.59;94.73;101619.84;6098032;23;20026;-79
2023/01/10 11:45:35;;;;;;;17.23;3.90;;;;;;;5.61;94.74;101620.94;6100746;23;20011;-77
2023/01/10 11:48:16;;;;;;;17.83;4.72;;;;;;;5.62;94.82;101624.31;6098626;23;20097;-78